sensor_id;sensor_type;location;lat;lon;timestamp;pressure;altitude;pressure_sealevel;temperature;humidity
74975;BME280;68459;50.836;19.138;2023-09-19T00:01:19;97967.53;;;18.28;62.91
74975;BME280;68459;50.836;19.138;2023-09-19T00:04:23;97959.59;;;18.32;62.92
74975;BME280;68459;50.836;19.138;2023-09-19T00:07:31;97957.91;;;18.36;62.78
74975;BME280;68459;50.836;19.138;2023-09-19T00:10:34;97953.78;;;18.38;62.74
74975;BME280;68459;50.836;19.138;2023-09-19T00:13:40;97953.72;;;18.43;63.10
74975;BME280;68459;50.836;19.138;2023-09-19T00:16:43;97956.69;;;18.47;62.89
74975;BME280;68459;50.836;19.138;2023-09-19T00:19:49;97953.66;;;18.48;62.91
74975;BME280;68459;50.836;19.138;2023-09-19T00:22:55;97944.66;;;18.48;62.90
74975;BME280;68459;50.836;19.138;2023-09-19T00:26:01;97949.03;;;18.49;63.12
74975;BME280;68459;50.836;19.138;2023-09-19T00:29:07;97949.03;;;18.49;63.09
74975;BME280;68459;50.836;19.138;2023-09-19T00:32:11;97943.28;;;18.50;63.18
74975;BME280;68459;50.836;19.138;2023-09-19T00:35:16;97943.19;;;18.56;63.36
74975;BME280;68459;50.836;19.138;2023-09-19T00:38:20;97933.06;;;18.61;63.16
74975;BME280;68459;50.836;19.138;2023-09-19T00:41:29;97933.25;;;18.65;63.03
74975;BME280;68459;50.836;19.138;2023-09-19T00:44:34;97930.47;;;18.70;62.98
74975;BME280;68459;50.836;19.138;2023-09-19T00:47:39;97922.78;;;18.72;63.02
74975;BME280;68459;50.836;19.138;2023-09-19T00:50:45;97925.00;;;18.70;63.05
74975;BME280;68459;50.836;19.138;2023-09-19T00:53:51;97919.53;;;18.70;62.99
74975;BME280;68459;50.836;19.138;2023-09-19T00:56:55;97904.25;;;18.69;63.13
74975;BME280;68459;50.836;19.138;2023-09-19T01:00:01;97909.72;;;18.69;63.08
74975;BME280;68459;50.836;19.138;2023-09-19T01:03:09;97906.69;;;18.70;63.21
74975;BME280;68459;50.836;19.138;2023-09-19T01:06:16;97907.06;;;18.64;63.30
74975;BME280;68459;50.836;19.138;2023-09-19T01:09:20;97901.09;;;18.62;63.58
74975;BME280;68459;50.836;19.138;2023-09-19T01:12:30;97904.66;;;18.57;63.97
74975;BME280;68459;50.836;19.138;2023-09-19T01:15:46;97886.66;;;18.56;63.83
74975;BME280;68459;50.836;19.138;2023-09-19T01:19:01;97887.47;;;18.57;64.06
74975;BME280;68459;50.836;19.138;2023-09-19T01:22:16;97892.91;;;18.57;63.96
74975;BME280;68459;50.836;19.138;2023-09-19T01:25:40;97880.06;;;18.57;64.42
74975;BME280;68459;50.836;19.138;2023-09-19T01:29:01;97874.63;;;18.57;64.35
74975;BME280;68459;50.836;19.138;2023-09-19T01:32:19;97869.44;;;18.56;63.93
74975;BME280;68459;50.836;19.138;2023-09-19T01:35:24;97874.66;;;18.52;63.69
74975;BME280;68459;50.836;19.138;2023-09-19T01:38:28;97862.44;;;18.49;64.07
74975;BME280;68459;50.836;19.138;2023-09-19T01:41:45;97869.00;;;18.48;64.61
74975;BME280;68459;50.836;19.138;2023-09-19T01:44:57;97863.75;;;18.52;64.24
74975;BME280;68459;50.836;19.138;2023-09-19T01:48:13;97861.25;;;18.56;63.98
74975;BME280;68459;50.836;19.138;2023-09-19T01:51:32;97859.59;;;18.60;64.19
74975;BME280;68459;50.836;19.138;2023-09-19T01:54:41;97854.66;;;18.62;64.02
74975;BME280;68459;50.836;19.138;2023-09-19T01:57:52;97853.75;;;18.66;63.83
74975;BME280;68459;50.836;19.138;2023-09-19T02:00:59;97855.38;;;18.67;63.52
74975;BME280;68459;50.836;19.138;2023-09-19T02:04:05;97851.53;;;18.68;63.49
74975;BME280;68459;50.836;19.138;2023-09-19T02:07:08;97857.22;;;18.72;63.46
74975;BME280;68459;50.836;19.138;2023-09-19T02:10:12;97851.75;;;18.72;63.38
74975;BME280;68459;50.836;19.138;2023-09-19T02:13:17;97856.13;;;18.73;63.19
74975;BME280;68459;50.836;19.138;2023-09-19T02:16:21;97850.38;;;18.74;63.41
74975;BME280;68459;50.836;19.138;2023-09-19T02:19:27;97860.47;;;18.74;63.60
74975;BME280;68459;50.836;19.138;2023-09-19T02:22:32;97851.25;;;18.70;63.51
74975;BME280;68459;50.836;19.138;2023-09-19T02:25:35;97850.13;;;18.71;63.51
74975;BME280;68459;50.836;19.138;2023-09-19T02:28:41;97854.19;;;18.73;63.58
74975;BME280;68459;50.836;19.138;2023-09-19T02:31:45;97849.78;;;18.77;63.38
74975;BME280;68459;50.836;19.138;2023-09-19T02:34:51;97847.25;;;18.81;63.26
74975;BME280;68459;50.836;19.138;2023-09-19T02:37:55;97852.66;;;18.86;63.32
74975;BME280;68459;50.836;19.138;2023-09-19T02:40:59;97853.97;;;18.89;63.20
74975;BME280;68459;50.836;19.138;2023-09-19T02:44:04;97852.53;;;18.91;63.13
74975;BME280;68459;50.836;19.138;2023-09-19T02:47:09;97852.88;;;18.90;63.37
74975;BME280;68459;50.836;19.138;2023-09-19T02:50:16;97847.19;;;18.86;63.76
74975;BME280;68459;50.836;19.138;2023-09-19T02:53:20;97835.72;;;18.84;63.87
74975;BME280;68459;50.836;19.138;2023-09-19T02:56:24;97843.94;;;18.84;63.69
74975;BME280;68459;50.836;19.138;2023-09-19T02:59:28;97846.94;;;18.82;64.01
74975;BME280;68459;50.836;19.138;2023-09-19T03:02:33;97845.91;;;18.78;64.38
74975;BME280;68459;50.836;19.138;2023-09-19T03:05:39;97840.84;;;18.72;64.51
74975;BME280;68459;50.836;19.138;2023-09-19T03:08:43;97844.69;;;18.71;64.42
74975;BME280;68459;50.836;19.138;2023-09-19T03:11:47;97842.47;;;18.73;64.59
74975;BME280;68459;50.836;19.138;2023-09-19T03:14:52;97833.69;;;18.76;64.32
74975;BME280;68459;50.836;19.138;2023-09-19T03:17:57;97834.97;;;18.78;64.31
74975;BME280;68459;50.836;19.138;2023-09-19T03:21:03;97836.91;;;18.78;64.41
74975;BME280;68459;50.836;19.138;2023-09-19T03:24:07;97841.06;;;18.75;64.58
74975;BME280;68459;50.836;19.138;2023-09-19T03:27:11;97828.50;;;18.74;64.63
74975;BME280;68459;50.836;19.138;2023-09-19T03:30:16;97822.75;;;18.76;64.55
74975;BME280;68459;50.836;19.138;2023-09-19T03:33:20;97816.66;;;18.79;64.43
74975;BME280;68459;50.836;19.138;2023-09-19T03:36:25;97830.56;;;18.82;64.49
74975;BME280;68459;50.836;19.138;2023-09-19T03:39:30;97830.56;;;18.82;64.60
74975;BME280;68459;50.836;19.138;2023-09-19T03:42:34;97832.78;;;18.80;64.52
74975;BME280;68459;50.836;19.138;2023-09-19T03:45:38;97821.53;;;18.82;64.68
74975;BME280;68459;50.836;19.138;2023-09-19T03:48:42;97817.94;;;18.86;64.70
74975;BME280;68459;50.836;19.138;2023-09-19T03:51:48;97825.31;;;18.86;64.90
74975;BME280;68459;50.836;19.138;2023-09-19T03:54:51;97823.09;;;18.88;64.56
74975;BME280;68459;50.836;19.138;2023-09-19T03:57:55;97820.97;;;18.85;64.71
74975;BME280;68459;50.836;19.138;2023-09-19T04:00:59;97816.59;;;18.84;64.57
74975;BME280;68459;50.836;19.138;2023-09-19T04:04:03;97815.78;;;18.83;64.67
74975;BME280;68459;50.836;19.138;2023-09-19T04:07:12;97817.41;;;18.84;64.88
74975;BME280;68459;50.836;19.138;2023-09-19T04:10:16;97810.31;;;18.83;64.79
74975;BME280;68459;50.836;19.138;2023-09-19T04:13:20;97813.56;;;18.85;64.52
74975;BME280;68459;50.836;19.138;2023-09-19T04:16:23;97814.97;;;18.83;64.53
74975;BME280;68459;50.836;19.138;2023-09-19T04:19:27;97816.09;;;18.82;64.76
74975;BME280;68459;50.836;19.138;2023-09-19T04:22:32;97820.44;;;18.83;64.79
74975;BME280;68459;50.836;19.138;2023-09-19T04:25:36;97817.41;;;18.84;64.58
74975;BME280;68459;50.836;19.138;2023-09-19T04:28:40;97823.69;;;18.85;64.55
74975;BME280;68459;50.836;19.138;2023-09-19T04:31:43;97813.56;;;18.85;64.43
74975;BME280;68459;50.836;19.138;2023-09-19T04:34:47;97824.72;;;18.89;64.50
74975;BME280;68459;50.836;19.138;2023-09-19T04:37:54;97813.78;;;18.89;64.45
74975;BME280;68459;50.836;19.138;2023-09-19T04:40:58;97814.63;;;18.90;64.34
74975;BME280;68459;50.836;19.138;2023-09-19T04:44:02;97813.78;;;18.89;64.52
74975;BME280;68459;50.836;19.138;2023-09-19T04:47:06;97813.78;;;18.89;64.46
74975;BME280;68459;50.836;19.138;2023-09-19T04:50:10;97827.16;;;18.91;64.52
74975;BME280;68459;50.836;19.138;2023-09-19T04:53:17;97824.72;;;18.89;64.61
74975;BME280;68459;50.836;19.138;2023-09-19T04:56:22;97829.38;;;18.89;64.38
74975;BME280;68459;50.836;19.138;2023-09-19T04:59:26;97833.75;;;18.90;64.32
74975;BME280;68459;50.836;19.138;2023-09-19T05:02:33;97838.88;;;18.91;64.53
74975;BME280;68459;50.836;19.138;2023-09-19T05:05:37;97831.19;;;18.93;64.65
74975;BME280;68459;50.836;19.138;2023-09-19T05:08:42;97836.09;;;18.96;64.43
74975;BME280;68459;50.836;19.138;2023-09-19T05:11:46;97843.97;;;18.98;64.39
74975;BME280;68459;50.836;19.138;2023-09-19T05:14:50;97840.97;;;18.99;64.56
74975;BME280;68459;50.836;19.138;2023-09-19T05:17:53;97843.91;;;19.03;64.48
74975;BME280;68459;50.836;19.138;2023-09-19T05:21:01;97849.69;;;19.01;64.38
74975;BME280;68459;50.836;19.138;2023-09-19T05:24:07;97853.50;;;19.00;64.73
74975;BME280;68459;50.836;19.138;2023-09-19T05:27:12;97866.06;;;19.01;64.64
74975;BME280;68459;50.836;19.138;2023-09-19T05:30:16;97872.34;;;19.02;64.75
74975;BME280;68459;50.836;19.138;2023-09-19T05:33:20;97878.81;;;19.06;64.74
74975;BME280;68459;50.836;19.138;2023-09-19T05:36:23;97873.06;;;19.07;64.99
74975;BME280;68459;50.836;19.138;2023-09-19T05:39:28;97877.44;;;19.08;65.29
74975;BME280;68459;50.836;19.138;2023-09-19T05:42:32;97885.34;;;19.10;65.23
74975;BME280;68459;50.836;19.138;2023-09-19T05:45:35;97878.16;;;19.14;65.09
74975;BME280;68459;50.836;19.138;2023-09-19T05:48:40;97881.09;;;19.17;65.25
74975;BME280;68459;50.836;19.138;2023-09-19T05:51:43;97879.50;;;19.16;65.46
74975;BME280;68459;50.836;19.138;2023-09-19T05:54:49;97872.31;;;19.20;65.58
74975;BME280;68459;50.836;19.138;2023-09-19T05:57:53;97875.78;;;19.26;65.46
74975;BME280;68459;50.836;19.138;2023-09-19T06:00:57;97880.13;;;19.27;65.42
74975;BME280;68459;50.836;19.138;2023-09-19T06:04:01;97877.63;;;19.31;65.39
74975;BME280;68459;50.836;19.138;2023-09-19T06:07:07;97881.97;;;19.32;65.55
74975;BME280;68459;50.836;19.138;2023-09-19T06:10:12;97885.03;;;19.30;65.73
74975;BME280;68459;50.836;19.138;2023-09-19T06:13:16;97890.16;;;19.32;65.54
74975;BME280;68459;50.836;19.138;2023-09-19T06:16:22;97893.13;;;19.35;65.65
74975;BME280;68459;50.836;19.138;2023-09-19T06:19:26;97892.31;;;19.35;65.72
74975;BME280;68459;50.836;19.138;2023-09-19T06:22:30;97905.69;;;19.36;65.64
74975;BME280;68459;50.836;19.138;2023-09-19T06:25:35;97913.59;;;19.38;65.81
74975;BME280;68459;50.836;19.138;2023-09-19T06:28:39;97916.31;;;19.38;65.88
74975;BME280;68459;50.836;19.138;2023-09-19T06:31:44;97927.28;;;19.38;65.94
74975;BME280;68459;50.836;19.138;2023-09-19T06:34:52;97923.94;;;19.41;66.22
74975;BME280;68459;50.836;19.138;2023-09-19T06:37:56;97926.88;;;19.44;65.91
74975;BME280;68459;50.836;19.138;2023-09-19T06:41:02;97934.22;;;19.49;66.10
74975;BME280;68459;50.836;19.138;2023-09-19T06:44:09;97941.53;;;19.53;66.15
74975;BME280;68459;50.836;19.138;2023-09-19T06:47:13;97939.03;;;19.57;65.97
74975;BME280;68459;50.836;19.138;2023-09-19T06:50:19;97945.78;;;19.60;66.10
74975;BME280;68459;50.836;19.138;2023-09-19T06:53:25;97960.28;;;19.60;66.08
74975;BME280;68459;50.836;19.138;2023-09-19T06:56:30;97960.41;;;19.55;66.53
74975;BME280;68459;50.836;19.138;2023-09-19T06:59:34;97967.56;;;19.51;66.49
74975;BME280;68459;50.836;19.138;2023-09-19T07:02:38;97965.94;;;19.50;66.94
74975;BME280;68459;50.836;19.138;2023-09-19T07:05:43;97981.53;;;19.49;66.94
74975;BME280;68459;50.836;19.138;2023-09-19T07:08:47;97986.75;;;19.46;67.12
74975;BME280;68459;50.836;19.138;2023-09-19T07:11:54;97995.34;;;19.39;67.39
74975;BME280;68459;50.836;19.138;2023-09-19T07:14:58;97993.78;;;19.33;67.60
74975;BME280;68459;50.836;19.138;2023-09-19T07:18:02;98006.66;;;19.33;67.65
74975;BME280;68459;50.836;19.138;2023-09-19T07:21:05;98009.47;;;19.28;67.77
74975;BME280;68459;50.836;19.138;2023-09-19T07:24:10;98003.84;;;19.19;68.23
74975;BME280;68459;50.836;19.138;2023-09-19T07:27:15;98002.53;;;19.16;68.30
74975;BME280;68459;50.836;19.138;2023-09-19T07:30:18;98003.03;;;19.18;68.69
74975;BME280;68459;50.836;19.138;2023-09-19T07:33:22;98013.97;;;19.18;68.68
74975;BME280;68459;50.836;19.138;2023-09-19T07:36:27;98021.88;;;19.20;69.00
74975;BME280;68459;50.836;19.138;2023-09-19T07:39:31;98020.84;;;19.16;69.01
74975;BME280;68459;50.836;19.138;2023-09-19T07:42:37;98019.13;;;19.20;69.50
74975;BME280;68459;50.836;19.138;2023-09-19T07:45:42;98017.16;;;19.26;69.21
74975;BME280;68459;50.836;19.138;2023-09-19T07:48:46;98021.66;;;19.35;69.13
74975;BME280;68459;50.836;19.138;2023-09-19T07:51:53;98014.25;;;19.36;69.20
74975;BME280;68459;50.836;19.138;2023-09-19T07:55:01;98013.09;;;19.42;68.96
74975;BME280;68459;50.836;19.138;2023-09-19T07:58:12;98020.66;;;19.50;69.27
74975;BME280;68459;50.836;19.138;2023-09-19T08:01:18;98017.84;;;19.55;68.94
74975;BME280;68459;50.836;19.138;2023-09-19T08:04:23;98012.78;;;19.62;68.85
74975;BME280;68459;50.836;19.138;2023-09-19T08:07:28;98022.47;;;19.73;68.85
74975;BME280;68459;50.836;19.138;2023-09-19T08:10:32;98020.38;;;19.84;68.63
74975;BME280;68459;50.836;19.138;2023-09-19T08:13:39;98035.00;;;19.93;68.44
74975;BME280;68459;50.836;19.138;2023-09-19T08:16:45;98033.31;;;19.97;68.11
74975;BME280;68459;50.836;19.138;2023-09-19T08:19:49;98036.22;;;20.01;68.40
74975;BME280;68459;50.836;19.138;2023-09-19T08:22:55;98036.69;;;20.08;67.99
74975;BME280;68459;50.836;19.138;2023-09-19T08:25:59;98045.72;;;20.08;67.95
74975;BME280;68459;50.836;19.138;2023-09-19T08:29:07;98041.75;;;20.14;67.90
74975;BME280;68459;50.836;19.138;2023-09-19T08:32:12;98044.41;;;20.19;67.95
74975;BME280;68459;50.836;19.138;2023-09-19T08:35:16;98052.50;;;20.24;67.81
74975;BME280;68459;50.836;19.138;2023-09-19T08:38:21;98057.47;;;20.41;67.63
74975;BME280;68459;50.836;19.138;2023-09-19T08:41:25;98066.78;;;20.40;67.67
74975;BME280;68459;50.836;19.138;2023-09-19T08:44:30;98081.00;;;20.42;67.77
74975;BME280;68459;50.836;19.138;2023-09-19T08:47:45;98064.56;;;20.42;67.73
74975;BME280;68459;50.836;19.138;2023-09-19T08:50:51;98069.34;;;20.37;68.01
74975;BME280;68459;50.836;19.138;2023-09-19T08:54:03;98060.94;;;20.47;67.93
74975;BME280;68459;50.836;19.138;2023-09-19T08:57:10;98077.09;;;20.62;67.30
74975;BME280;68459;50.836;19.138;2023-09-19T09:00:16;98078.78;;;20.58;67.23
74975;BME280;68459;50.836;19.138;2023-09-19T09:03:22;98069.00;;;20.38;67.69
74975;BME280;68459;50.836;19.138;2023-09-19T09:06:26;98078.50;;;20.27;68.18
74975;BME280;68459;50.836;19.138;2023-09-19T09:09:31;98069.59;;;20.35;67.92
74975;BME280;68459;50.836;19.138;2023-09-19T09:12:35;98071.47;;;20.53;67.58
74975;BME280;68459;50.836;19.138;2023-09-19T09:15:43;98083.47;;;20.71;67.21
74975;BME280;68459;50.836;19.138;2023-09-19T09:18:49;98079.13;;;20.84;66.68
74975;BME280;68459;50.836;19.138;2023-09-19T09:22:06;98091.78;;;21.07;66.67
74975;BME280;68459;50.836;19.138;2023-09-19T09:25:10;98087.72;;;21.18;65.85
74975;BME280;68459;50.836;19.138;2023-09-19T09:28:19;98084.19;;;21.31;65.86
74975;BME280;68459;50.836;19.138;2023-09-19T09:31:25;98089.97;;;21.44;65.55
74975;BME280;68459;50.836;19.138;2023-09-19T09:34:32;98091.97;;;21.52;64.84
74975;BME280;68459;50.836;19.138;2023-09-19T09:37:38;98099.09;;;21.53;64.91
74975;BME280;68459;50.836;19.138;2023-09-19T09:40:47;98106.06;;;21.59;64.84
74975;BME280;68459;50.836;19.138;2023-09-19T09:43:51;98119.00;;;21.58;64.70
74975;BME280;68459;50.836;19.138;2023-09-19T09:46:57;98123.19;;;21.56;64.59
74975;BME280;68459;50.836;19.138;2023-09-19T09:50:28;98132.66;;;21.36;64.57
74975;BME280;68459;50.836;19.138;2023-09-19T09:53:46;98132.06;;;21.25;64.56
74975;BME280;68459;50.836;19.138;2023-09-19T09:56:55;98128.81;;;21.23;64.75
74975;BME280;68459;50.836;19.138;2023-09-19T10:00:03;98121.28;;;21.15;64.74
74975;BME280;68459;50.836;19.138;2023-09-19T10:03:32;98129.91;;;21.22;64.84
74975;BME280;68459;50.836;19.138;2023-09-19T10:06:41;98126.56;;;21.25;64.47
74975;BME280;68459;50.836;19.138;2023-09-19T10:09:50;98123.31;;;21.23;64.60
74975;BME280;68459;50.836;19.138;2023-09-19T10:12:55;98124.81;;;21.16;64.87
74975;BME280;68459;50.836;19.138;2023-09-19T10:16:06;98129.59;;;21.10;64.79
74975;BME280;68459;50.836;19.138;2023-09-19T10:19:21;98138.72;;;21.06;64.75
74975;BME280;68459;50.836;19.138;2023-09-19T10:22:28;98132.03;;;20.98;65.07
74975;BME280;68459;50.836;19.138;2023-09-19T10:25:36;98135.88;;;20.83;65.23
74975;BME280;68459;50.836;19.138;2023-09-19T10:28:41;98140.44;;;20.74;65.46
74975;BME280;68459;50.836;19.138;2023-09-19T10:31:47;98159.19;;;20.67;65.66
74975;BME280;68459;50.836;19.138;2023-09-19T10:34:55;98151.38;;;20.60;65.79
74975;BME280;68459;50.836;19.138;2023-09-19T10:38:01;98160.19;;;20.57;65.86
74975;BME280;68459;50.836;19.138;2023-09-19T10:41:05;98151.75;;;20.54;65.82
74975;BME280;68459;50.836;19.138;2023-09-19T10:44:09;98165.63;;;20.44;65.92
74975;BME280;68459;50.836;19.138;2023-09-19T10:47:14;98163.47;;;20.41;66.18
74975;BME280;68459;50.836;19.138;2023-09-19T10:50:23;98182.38;;;20.42;66.13
74975;BME280;68459;50.836;19.138;2023-09-19T10:53:29;98177.69;;;20.24;66.61
74975;BME280;68459;50.836;19.138;2023-09-19T10:56:37;98179.94;;;20.03;67.24
74975;BME280;68459;50.836;19.138;2023-09-19T11:00:00;98187.34;;;19.84;69.06
74975;BME280;68459;50.836;19.138;2023-09-19T11:03:24;98182.91;;;19.69;68.26
74975;BME280;68459;50.836;19.138;2023-09-19T11:06:34;98193.13;;;19.58;69.26
74975;BME280;68459;50.836;19.138;2023-09-19T11:09:49;98194.09;;;19.49;70.12
74975;BME280;68459;50.836;19.138;2023-09-19T11:12:55;98195.25;;;19.43;69.26
74975;BME280;68459;50.836;19.138;2023-09-19T11:16:04;98194.63;;;19.46;69.58
74975;BME280;68459;50.836;19.138;2023-09-19T11:19:08;98195.44;;;19.46;69.63
74975;BME280;68459;50.836;19.138;2023-09-19T11:22:14;98200.72;;;19.43;70.11
74975;BME280;68459;50.836;19.138;2023-09-19T11:25:41;98199.09;;;19.42;70.12
74975;BME280;68459;50.836;19.138;2023-09-19T11:29:26;98207.22;;;19.47;70.86
74975;BME280;68459;50.836;19.138;2023-09-19T11:36:06;98201.81;;;19.42;70.40
74975;BME280;68459;50.836;19.138;2023-09-19T11:39:25;98205.03;;;19.49;70.57
74975;BME280;68459;50.836;19.138;2023-09-19T11:42:42;98207.94;;;19.57;70.91
74975;BME280;68459;50.836;19.138;2023-09-19T11:46:05;98205.44;;;19.61;71.32
74975;BME280;68459;50.836;19.138;2023-09-19T11:49:09;98213.28;;;19.68;70.12
74975;BME280;68459;50.836;19.138;2023-09-19T11:52:21;98212.09;;;19.74;71.02
74975;BME280;68459;50.836;19.138;2023-09-19T11:55:29;98217.13;;;19.85;70.40
74975;BME280;68459;50.836;19.138;2023-09-19T11:58:35;98212.72;;;19.89;70.16
74975;BME280;68459;50.836;19.138;2023-09-19T12:01:50;98211.97;;;19.84;71.33
74975;BME280;68459;50.836;19.138;2023-09-19T12:04:57;98206.13;;;19.90;70.51
74975;BME280;68459;50.836;19.138;2023-09-19T12:08:02;98217.97;;;20.05;70.36
74975;BME280;68459;50.836;19.138;2023-09-19T12:11:14;98210.06;;;20.22;70.99
74975;BME280;68459;50.836;19.138;2023-09-19T12:14:23;98213.53;;;20.27;70.01
74975;BME280;68459;50.836;19.138;2023-09-19T12:17:35;98212.78;;;20.41;69.82
74975;BME280;68459;50.836;19.138;2023-09-19T12:20:42;98229.06;;;20.51;69.49
74975;BME280;68459;50.836;19.138;2023-09-19T12:24:05;98218.44;;;20.49;70.28
74975;BME280;68459;50.836;19.138;2023-09-19T12:27:10;98213.59;;;20.60;69.17
74975;BME280;68459;50.836;19.138;2023-09-19T12:30:14;98222.16;;;20.72;69.00
74975;BME280;68459;50.836;19.138;2023-09-19T12:33:23;98216.41;;;20.87;68.98
74975;BME280;68459;50.836;19.138;2023-09-19T12:36:28;98215.09;;;20.98;68.40
74975;BME280;68459;50.836;19.138;2023-09-19T12:39:32;98210.84;;;21.06;68.19
74975;BME280;68459;50.836;19.138;2023-09-19T12:42:39;98211.34;;;21.08;68.03
74975;BME280;68459;50.836;19.138;2023-09-19T12:45:43;98209.84;;;21.16;67.81
74975;BME280;68459;50.836;19.138;2023-09-19T12:48:47;98209.69;;;21.26;67.60
74975;BME280;68459;50.836;19.138;2023-09-19T12:51:54;98212.00;;;21.60;67.45
74975;BME280;68459;50.836;19.138;2023-09-19T12:54:58;98216.56;;;21.78;66.80
74975;BME280;68459;50.836;19.138;2023-09-19T12:58:12;98213.09;;;21.86;66.15
74975;BME280;68459;50.836;19.138;2023-09-19T13:01:17;98205.78;;;21.95;66.02
74975;BME280;68459;50.836;19.138;2023-09-19T13:04:22;98211.47;;;21.99;65.77
74975;BME280;68459;50.836;19.138;2023-09-19T13:07:41;98217.22;;;21.97;65.83
74975;BME280;68459;50.836;19.138;2023-09-19T13:11:02;98218.78;;;22.03;65.42
74975;BME280;68459;50.836;19.138;2023-09-19T13:14:16;98228.03;;;22.08;65.32
74975;BME280;68459;50.836;19.138;2023-09-19T13:17:20;98216.13;;;22.12;65.21
74975;BME280;68459;50.836;19.138;2023-09-19T13:20:26;98215.97;;;22.31;65.06
74975;BME280;68459;50.836;19.138;2023-09-19T13:23:31;98229.84;;;22.48;64.27
74975;BME280;68459;50.836;19.138;2023-09-19T13:26:34;98222.13;;;22.50;63.81
74975;BME280;68459;50.836;19.138;2023-09-19T13:29:39;98220.84;;;22.56;63.71
74975;BME280;68459;50.836;19.138;2023-09-19T13:32:44;98221.59;;;22.70;63.55
74975;BME280;68459;50.836;19.138;2023-09-19T13:35:49;98225.22;;;23.02;62.91
74975;BME280;68459;50.836;19.138;2023-09-19T13:38:53;98232.47;;;23.29;62.37
74975;BME280;68459;50.836;19.138;2023-09-19T13:41:58;98233.81;;;23.40;61.59
74975;BME280;68459;50.836;19.138;2023-09-19T13:45:04;98235.88;;;23.57;61.19
74975;BME280;68459;50.836;19.138;2023-09-19T13:48:08;98236.09;;;23.86;60.47
74975;BME280;68459;50.836;19.138;2023-09-19T13:51:13;98231.13;;;24.05;60.07
74975;BME280;68459;50.836;19.138;2023-09-19T13:54:17;98216.69;;;24.08;59.66
74975;BME280;68459;50.836;19.138;2023-09-19T13:57:23;98231.75;;;23.94;59.67
74975;BME280;68459;50.836;19.138;2023-09-19T14:00:28;98226.19;;;23.68;60.05
74975;BME280;68459;50.836;19.138;2023-09-19T14:03:32;98229.94;;;23.41;60.60
74975;BME280;68459;50.836;19.138;2023-09-19T14:06:36;98219.47;;;23.21;60.68
74975;BME280;68459;50.836;19.138;2023-09-19T14:09:39;98217.94;;;23.06;60.99
74975;BME280;68459;50.836;19.138;2023-09-19T14:12:44;98233.09;;;22.95;60.84
74975;BME280;68459;50.836;19.138;2023-09-19T14:15:49;98240.03;;;22.70;61.12
74975;BME280;68459;50.836;19.138;2023-09-19T14:18:53;98235.72;;;22.55;61.20
74975;BME280;68459;50.836;19.138;2023-09-19T14:21:56;98242.03;;;22.78;61.09
74975;BME280;68459;50.836;19.138;2023-09-19T14:25:01;98245.50;;;23.85;59.35
74975;BME280;68459;50.836;19.138;2023-09-19T14:28:06;98241.69;;;24.64;56.86
74975;BME280;68459;50.836;19.138;2023-09-19T14:31:12;98237.88;;;25.29;55.22
74975;BME280;68459;50.836;19.138;2023-09-19T14:34:17;98242.88;;;25.82;54.29
74975;BME280;68459;50.836;19.138;2023-09-19T14:37:22;98246.22;;;26.17;53.02
74975;BME280;68459;50.836;19.138;2023-09-19T14:40:25;98245.00;;;26.06;52.48
74975;BME280;68459;50.836;19.138;2023-09-19T14:43:29;98249.63;;;26.22;51.71
74975;BME280;68459;50.836;19.138;2023-09-19T14:46:35;98242.28;;;26.47;50.87
74975;BME280;68459;50.836;19.138;2023-09-19T14:49:39;98247.41;;;26.90;50.55
74975;BME280;68459;50.836;19.138;2023-09-19T14:52:43;98243.19;;;27.26;49.76
74975;BME280;68459;50.836;19.138;2023-09-19T14:55:47;98260.09;;;28.06;48.56
74975;BME280;68459;50.836;19.138;2023-09-19T14:58:54;98248.94;;;29.54;45.83
74975;BME280;68459;50.836;19.138;2023-09-19T15:01:59;98255.25;;;30.53;43.81
74975;BME280;68459;50.836;19.138;2023-09-19T15:05:02;98248.03;;;31.94;41.73
74975;BME280;68459;50.836;19.138;2023-09-19T15:08:06;98258.75;;;33.38;39.57
74975;BME280;68459;50.836;19.138;2023-09-19T15:11:10;98260.97;;;34.10;37.13
74975;BME280;68459;50.836;19.138;2023-09-19T15:14:14;98259.69;;;33.56;37.16
74975;BME280;68459;50.836;19.138;2023-09-19T15:17:19;98258.50;;;32.27;38.14
74975;BME280;68459;50.836;19.138;2023-09-19T15:20:23;98251.69;;;31.52;40.14
74975;BME280;68459;50.836;19.138;2023-09-19T15:23:27;98250.16;;;31.77;39.54
74975;BME280;68459;50.836;19.138;2023-09-19T15:26:33;98255.03;;;31.38;40.19
74975;BME280;68459;50.836;19.138;2023-09-19T15:29:41;98261.44;;;32.11;39.07
74975;BME280;68459;50.836;19.138;2023-09-19T15:32:47;98260.19;;;33.24;37.61
74975;BME280;68459;50.836;19.138;2023-09-19T15:35:51;98267.53;;;34.28;36.23
74975;BME280;68459;50.836;19.138;2023-09-19T15:38:57;98270.34;;;35.00;34.78
74975;BME280;68459;50.836;19.138;2023-09-19T15:42:01;98268.88;;;35.53;33.74
74975;BME280;68459;50.836;19.138;2023-09-19T15:45:05;98266.44;;;35.33;33.37
74975;BME280;68459;50.836;19.138;2023-09-19T15:48:13;98263.41;;;34.77;33.87
74975;BME280;68459;50.836;19.138;2023-09-19T15:51:16;98267.69;;;34.56;34.64
74975;BME280;68459;50.836;19.138;2023-09-19T15:54:20;98266.91;;;34.59;34.63
74975;BME280;68459;50.836;19.138;2023-09-19T15:57:24;98270.09;;;34.54;34.08
74975;BME280;68459;50.836;19.138;2023-09-19T16:00:27;98267.03;;;34.22;34.12
74975;BME280;68459;50.836;19.138;2023-09-19T16:03:32;98278.44;;;33.92;33.83
74975;BME280;68459;50.836;19.138;2023-09-19T16:06:37;98278.63;;;33.29;35.00
74975;BME280;68459;50.836;19.138;2023-09-19T16:09:41;98287.03;;;32.69;35.55
74975;BME280;68459;50.836;19.138;2023-09-19T16:12:45;98280.22;;;31.65;36.50
74975;BME280;68459;50.836;19.138;2023-09-19T16:15:48;98278.59;;;30.64;37.48
74975;BME280;68459;50.836;19.138;2023-09-19T16:18:55;98281.66;;;29.45;38.82